This is the latest recevied weather packets stored in our database for station/object EA5GTE-12. If no packets are shown the sender has not sent any weather packets the latest 10 day(s).
| Time | Temp. | Humidity | Pressure | Rain* | Wind** | Luminosity | Snow |
|---|---|---|---|---|---|---|---|
| 1787424782 | 26.11° C | 64% | 937.7 hPa | - | - | - | - |
| 1787423882 | 27.22° C | 58% | 937.3 hPa | - | - | - | - |
| 1787422982 | 27.78° C | 56% | 937 hPa | - | - | - | - |
| 1787422082 | 29.44° C | 48% | 936.9 hPa | - | - | - | - |
| 1787421182 | 31.67° C | 37% | 936.8 hPa | - | - | - | - |
| 1787420282 | 31.67° C | 35% | 936.8 hPa | - | - | - | - |
| 1787419382 | 32.78° C | 32% | 936.6 hPa | - | - | - | - |
| 1787418482 | 33.33° C | 31% | 936.6 hPa | - | - | - | - |
| 1787417582 | 35° C | 26% | 936.6 hPa | - | - | - | - |
| 1787416682 | 35.56° C | 26% | 936.6 hPa | - | - | - | - |
| 1787414883 | 35° C | 25% | 936.5 hPa | - | - | - | - |
| 1787413983 | 33.89° C | 28% | 936.6 hPa | - | - | - | - |
| 1787413083 | 33.33° C | 29% | 936.5 hPa | - | - | - | - |
| 1787412183 | 35° C | 24% | 936.5 hPa | - | - | - | - |
| 1787411283 | 34.44° C | 26% | 936.6 hPa | - | - | - | - |
| 1787410383 | 35.56° C | 27% | 936.8 hPa | - | - | - | - |
| 1787409483 | 33.89° C | 28% | 937 hPa | - | - | - | - |
| 1787408583 | 33.89° C | 30% | 937 hPa | - | - | - | - |
| 1787407681 | 33.33° C | 31% | 937.2 hPa | - | - | - | - |
| 1787406782 | 33.33° C | 29% | 937.4 hPa | - | - | - | - |
| 1787405881 | 33.33° C | 32% | 937.5 hPa | - | - | - | - |
| 1787404981 | 31.67° C | 34% | 937.7 hPa | - | - | - | - |
| 1787404081 | 33.33° C | 32% | 937.6 hPa | - | - | - | - |
| 1787403181 | 32.22° C | 35% | 937.9 hPa | - | - | - | - |
| 1787402281 | 31.67° C | 36% | 938.1 hPa | - | - | - | - |
* Rain since midnight (hover to see other rain measurements)
** Current wind speed in m/s (hover to see current wind gust speed)